Latest Weather Observations for Tasman Island

IDT60801

Issued at 11:31 am EDT Tuesday 20 November 2018 (issued every 10 minutes, with the page automatically refreshed every 10 minutes)

About weather observations | Map of weather stations | Latest weather observations for TAS | Other Formats
Station Details ID: 094155 Name: TASMAN ISLAND Lat: -43.24 Lon: 148.00 Height: 240.0 m
Data from the previous 72 hours. | See also: Recent months at Tasman Island
Date/Time
EDT
Temp
°C
App
Temp
°C
Dew
Point
°C
Rel
Hum
%
Delta-T
°C
Wind Press
QNH
hPa
Press
MSL
hPa
Rain since
9am
mm
Dir  Spd
km/h
Gust
km/h
Spd
kts
Gust
kts
20/11:30am 13.6 0.4 12.7 94 0.5 NNE 74 93 40 50 1007.3 1007.2 0.0
20/11:00am 13.7 0.1 12.6 93 0.6 NNE 76 95 41 51 1007.6 1007.6 0.0
20/10:32am 13.6 -0.4 12.7 94 0.5 NNE 78 96 42 52 1007.8 1007.8 0.0
20/10:30am 13.6 -0.4 12.7 94 0.5 NNE 78 95 42 51 1007.9 1007.9 0.0
20/10:00am 13.7 0.8 12.6 93 0.6 NNE 72 91 39 49 1008.2 1008.2 0.0
20/09:36am 14.0 0.8 12.7 92 0.7 NNE 74 93 40 50 1008.5 1008.5 0.0
20/09:30am 13.8 0.1 12.5 92 0.7 NNE 76 95 41 51 1008.6 1008.6 0.0
20/09:00am 13.4 0.1 12.3 93 0.6 NNE 74 93 40 50 1008.8 1008.8 0.0
20/08:32am 13.4 0.5 12.5 94 0.5 NNE 72 95 39 51 1008.9 1008.9 0.0
20/08:30am 13.4 0.5 12.5 94 0.5 NNE 72 91 39 49 1008.8 1008.8 0.0
20/08:00am 12.8 0.2 12.2 96 0.3 NNE 70 91 38 49 1009.2 1009.2 0.0
20/07:30am 12.9 -0.1 12.3 96 0.3 NNE 72 91 39 49 1009.5 1009.5 0.0
20/07:02am 12.7 0.0 11.9 95 0.4 NNE 70 91 38 49 1009.9 1009.9 0.0
20/07:00am 12.7 -0.4 11.9 95 0.4 NNE 72 91 39 49 1009.9 1009.9 0.0
20/06:33am 12.7 0.0 11.8 94 0.5 NNE 70 89 38 48 1010.3 1010.2 0.0
20/06:30am 12.7 0.0 11.8 94 0.5 NNE 70 87 38 47 1010.3 1010.2 0.0
20/06:00am 12.6 0.4 11.7 94 0.5 NNE 67 87 36 47 1010.5 1010.4 0.0
20/05:30am 12.5 1.4 11.6 94 0.5 NNE 61 82 33 44 1010.9 1010.8 0.0
20/05:03am 12.5 2.3 11.4 93 0.6 NNE 56 76 30 41 1011.3 1011.3 0.0
20/05:00am 12.6 2.2 11.3 92 0.7 NNE 57 76 31 41 1011.4 1011.4 0.0
20/04:30am 12.4 1.3 11.6 95 0.4 NNE 61 78 33 42 1011.6 1011.6 0.0
20/04:13am 12.5 1.1 11.7 95 0.4 NNE 63 83 34 45 1011.5 1011.5 0.0
20/04:00am 12.6 1.2 11.7 94 0.5 NNE 63 76 34 41 1011.9 1011.9 0.0
20/03:30am 12.5 2.0 11.1 91 0.7 NNE 57 76 31 41 1012.5 1012.5 0.0
20/03:00am 12.4 0.6 10.6 89 0.9 NNE 63 78 34 42 1012.6 1012.6 0.0
20/02:30am 12.4 -0.1 10.5 88 1.0 NNE 67 83 36 45 1013.1 1013.1 0.0
20/02:01am 12.3 0.1 10.4 88 1.0 NNE 65 83 35 45 1013.1 1013.1 0.0
20/02:00am 12.3 0.5 10.4 88 1.0 NNE 63 80 34 43 1013.2 1013.2 0.0
20/01:33am 12.3 0.4 10.0 86 1.2 NNE 63 82 34 44 1013.8 1013.8 0.0
20/01:30am 12.3 0.0 9.9 85 1.2 NNE 65 82 35 44 1013.9 1013.9 0.0
20/01:00am 12.3 0.4 10.0 86 1.2 NNE 63 83 34 45 1014.2 1014.2 0.0
20/12:30am 12.4 -0.4 9.4 82 1.5 NNE 67 87 36 47 1014.8 1014.8 0.0
20/12:00am 12.4 -1.0 9.4 82 1.5 NNE 70 89 38 48 1015.2 1015.2 0.0
 
Date/Time
EDT
Temp
°C
App
Temp
°C
Dew
Point
°C
Rel
Hum
%
Delta-T
°C
Wind Press
QNH
hPa
Press
MSL
hPa
Rain since
9am
mm
Dir  Spd
km/h
Gust
km/h
Spd
kts
Gust
kts
19/11:32pm 12.5 -0.5 10.2 86 1.2 NNE 69 87 37 47 1014.9 1014.9 0.0
19/11:30pm 12.5 -0.5 10.2 86 1.2 NNE 69 87 37 47 1015.0 1015.0 0.0
19/11:00pm 12.6 0.3 10.1 85 1.3 NNE 65 83 35 45 1015.6 1015.6 0.0
19/10:30pm 12.7 1.1 9.9 83 1.5 NNE 61 83 33 45 1015.9 1015.9 0.0
19/10:07pm 12.7 0.3 9.7 82 1.5 NNE 65 85 35 46 1016.1 1016.1 0.0
19/10:00pm 12.7 0.3 9.5 81 1.6 NNE 65 83 35 45 1016.1 1016.1 0.0
19/09:30pm 12.6 0.1 9.2 80 1.7 NNE 65 82 35 44 1015.9 1015.9 0.0
19/09:00pm 12.7 0.7 9.7 82 1.5 NNE 63 78 34 42 1016.4 1016.4 0.0
19/08:30pm 12.7 1.0 9.5 81 1.6 NNE 61 76 33 41 1016.2 1016.2 0.0
19/08:00pm 12.8 1.2 9.8 82 1.6 NNE 61 78 33 42 1016.2 1016.2 0.0
19/07:51pm 12.8 1.2 9.6 81 1.7 NNE 61 80 33 43 1016.1 1016.1 0.0
19/07:30pm 12.9 1.3 9.7 81 1.7 NNE 61 80 33 43 1016.1 1016.1 0.0
19/07:25pm 12.8 1.6 9.8 82 1.6 NNE 59 80 32 43 1016.1 1016.1 0.0
19/07:00pm 12.9 1.7 9.7 81 1.7 NNE 59 74 32 40 1016.2 1016.2 0.0
19/06:30pm 12.9 1.3 9.9 82 1.6 NNE 61 78 33 42 1016.1 1016.1 0.0
19/06:00pm 13.1 1.6 10.3 83 1.5 NNE 61 80 33 43 1016.3 1016.3 0.0
19/05:53pm 12.9 1.4 10.3 84 1.4 NNE 61 80 33 43 1016.2 1016.2 0.0
19/05:30pm 13.0 0.8 10.2 83 1.5 NNE 65 80 35 43 1016.4 1016.4 0.0
19/05:06pm 13.4 1.9 10.0 80 1.8 NNE 61 80 33 43 1016.7 1016.7 0.0
19/05:00pm 13.4 1.1 10.0 80 1.8 NNE 65 80 35 43 1016.6 1016.6 0.0
19/04:45pm 13.4 1.8 9.8 79 1.9 NNE 61 82 33 44 1016.5 1016.5 0.0
19/04:30pm 13.5 1.6 9.9 79 1.9 NNE 63 78 34 42 1016.7 1016.7 0.0
19/04:06pm 13.7 2.1 9.7 77 2.1 NNE 61 83 33 45 1016.9 1016.9 0.0
19/04:00pm 13.6 1.6 9.8 78 2.0 NNE 63 80 34 43 1017.1 1017.1 0.0
19/03:30pm 13.8 2.2 9.8 77 2.1 NNE 61 78 33 42 1017.4 1017.4 0.0
19/03:01pm 13.8 1.7 9.5 75 2.2 NNE 63 83 34 45 1017.7 1017.7 0.0
19/03:00pm 13.9 1.9 9.7 76 2.2 NNE 63 80 34 43 1017.7 1017.7 0.0
19/02:50pm 14.1 2.6 10.1 77 2.1 NNE 61 80 33 43 1017.8 1017.8 0.0
19/02:30pm 13.9 2.1 10.3 79 1.9 NNE 63 80 34 43 1017.9 1017.9 0.0
19/02:16pm 14.0 2.6 10.4 79 1.9 NNE 61 82 33 44 1018.1 1018.2 0.0
19/02:00pm 13.8 1.9 10.2 79 1.9 NNE 63 80 34 43 1018.3 1018.4 0.0
19/01:35pm 13.9 2.0 10.1 78 2.0 NNE 63 83 34 45 1018.5 1018.6 0.0
19/01:30pm 13.8 2.3 10.2 79 1.9 NNE 61 78 33 42 1018.6 1018.7 0.0
19/01:12pm 13.8 1.9 10.2 79 1.9 NNE 63 82 34 44 1018.9 1018.9 0.0
19/01:00pm 14.0 2.5 10.2 78 2.0 NNE 61 78 33 42 1019.2 1019.2 0.0
19/12:43pm 13.9 2.1 10.3 79 1.9 NNE 63 82 34 44 1019.3 1019.3 0.0
19/12:30pm 13.9 1.6 10.1 78 2.0 NNE 65 82 35 44 1019.2 1019.2 0.0
19/12:00pm 13.7 1.4 10.1 79 1.9 NNE 65 87 35 47 1019.4 1019.4 0.0
19/11:30am 13.6 3.1 11.0 84 1.4 NNE 57 76 31 41 1020.1 1020.1 0.0
19/11:28am 13.8 3.3 11.0 83 1.5 NNE 57 76 31 41 1020.1 1020.1 0.0
19/11:00am 13.8 3.3 11.1 84 1.4 NNE 57 72 31 39 1020.5 1020.5 0.0
19/10:30am 14.1 4.8 12.0 87 1.1 NNE 52 67 28 36 1020.8 1020.8 0.0
19/10:00am 13.7 3.9 11.6 87 1.1 NNE 54 69 29 37 1020.8 1020.8 0.0
19/09:30am 13.6 3.5 11.7 88 1.0 NNE 56 69 30 37 1021.0 1021.0 0.0
19/09:00am 13.5 3.3 11.4 87 1.1 NNE 56 72 30 39 1021.1 1021.1 0.0
19/08:30am 13.4 4.0 11.5 88 1.0 NNE 52 65 28 35 1021.3 1021.3 0.0
19/08:00am 13.0 4.7 11.4 90 0.9 NNE 46 61 25 33 1021.4 1021.4 0.0
19/07:30am 12.7 4.8 11.6 93 0.6 NNE 44 57 24 31 1021.4 1021.4 0.0
19/07:00am 12.5 3.9 11.6 94 0.5 NNE 48 59 26 32 1021.3 1021.3 0.0
19/06:30am 12.3 4.6 11.4 94 0.5 NNE 43 57 23 31 1021.4 1021.4 0.0
19/06:00am 12.2 4.4 11.3 94 0.5 NNE 43 54 23 29 1021.5 1021.5 0.0
19/05:30am 12.2 4.4 11.1 93 0.6 NNE 43 56 23 30 1021.5 1021.5 0.0
19/05:00am 12.2 4.3 10.9 92 0.7 NNE 43 54 23 29 1021.6 1021.6 0.0
19/04:30am 12.0 3.9 10.9 93 0.6 NNE 44 57 24 31 1021.5 1021.5 0.0
19/04:00am 11.9 3.9 10.6 92 0.7 NNE 43 57 23 31 1021.5 1021.5 0.0
19/03:30am 11.9 4.7 10.6 92 0.7 NNE 39 56 21 30 1021.8 1021.9 0.0
19/03:00am 11.9 3.9 10.6 92 0.7 NNE 43 57 23 31 1021.9 1022.0 0.0
19/02:30am 11.9 3.7 10.5 91 0.7 NNE 44 59 24 32 1021.9 1022.0 0.0
19/02:00am 11.9 3.4 10.5 91 0.7 NNE 46 59 25 32 1022.2 1022.3 0.0
19/01:30am 11.8 3.2 10.4 91 0.7 NNE 46 57 25 31 1022.3 1022.4 0.0
19/01:00am 11.9 3.4 10.5 91 0.7 NNE 46 59 25 32 1022.7 1022.8 0.0
19/12:30am 11.8 3.6 10.4 91 0.7 NNE 44 57 24 31 1022.9 1023.0 0.0
19/12:00am 11.7 3.4 10.1 90 0.8 NNE 44 56 24 30 1023.3 1023.3 0.0
 
Date/Time
EDT
Temp
°C
App
Temp
°C
Dew
Point
°C
Rel
Hum
%
Delta-T
°C
Wind Press
QNH
hPa
Press
MSL
hPa
Rain since
9am
mm
Dir  Spd
km/h
Gust
km/h
Spd
kts
Gust
kts
18/11:30pm 11.8 3.1 9.9 88 1.0 NNE 46 56 25 30 1023.5 1023.5 0.0
18/11:00pm 11.7 3.2 9.4 86 1.2 NNE 44 56 24 30 1023.7 1023.7 0.0
18/10:30pm 11.6 3.1 8.6 82 1.5 NNE 43 56 23 30 1023.7 1023.7 0.0
18/10:00pm 11.6 4.6 8.3 80 1.6 NNE 35 56 19 30 1023.8 1023.8 0.0
18/09:54pm 11.6 4.5 8.1 79 1.7 NNE 35 54 19 29 1023.8 1023.8 0.0
18/09:30pm 11.6 4.6 8.3 80 1.6 NNE 35 50 19 27 1023.9 1023.9 0.0
18/09:06pm 11.4 4.6 7.9 79 1.7 NNE 33 52 18 28 1023.9 1023.9 0.0
18/09:00pm 11.4 4.2 7.7 78 1.8 NNE 35 52 19 28 1023.9 1023.9 0.0
18/08:36pm 11.3 5.4 7.6 78 1.8 NNE 28 50 15 27 1023.8 1023.8 0.0
18/08:30pm 11.3 5.8 7.6 78 1.8 NNE 26 46 14 25 1023.8 1023.8 0.0
18/08:02pm 11.3 5.6 8.2 81 1.5 NNE 28 48 15 26 1023.8 1023.8 0.0
18/08:00pm 11.3 5.9 8.2 81 1.5 NNE 26 48 14 26 1023.8 1023.8 0.0
18/07:30pm 11.4 7.1 7.9 79 1.7 NNE 20 39 11 21 1023.7 1023.7 0.0
18/07:00pm 11.6 6.3 6.9 73 2.3 NNE 24 41 13 22 1023.7 1023.7 0.0
18/06:30pm 11.7 6.0 6.6 71 2.5 NNE 26 41 14 22 1023.6 1023.6 0.0
18/06:00pm 12.0 7.1 6.9 71 2.5 NNE 22 37 12 20 1023.6 1023.6 0.0
18/05:30pm 12.4 7.8 6.5 67 2.8 NNE 20 35 11 19 1023.7 1023.7 0.0
18/05:00pm 12.8 8.4 6.6 66 3.0 NNE 19 32 10 17 1023.9 1023.9 0.0
18/04:30pm 13.1 8.6 6.2 63 3.3 NE 19 32 10 17 1024.1 1024.1 0.0
18/04:00pm 12.9 8.2 6.0 63 3.3 NE 20 32 11 17 1024.6 1024.6 0.0
18/03:30pm 13.2 8.7 5.9 61 3.5 NE 19 33 10 18 1024.7 1024.7 0.0
18/03:00pm 12.9 8.1 5.6 61 3.4 NE 20 33 11 18 1024.9 1024.9 0.0
18/02:30pm 13.2 9.0 5.9 61 3.5 NE 17 32 9 17 1025.3 1025.4 0.0
18/02:00pm 13.5 8.9 5.4 58 3.8 NE 19 28 10 15 1025.5 1025.6 0.0
18/01:30pm 13.8 10.2 5.2 56 4.1 NE 13 24 7 13 1025.7 1025.8 0.0
18/01:00pm 13.3 9.4 5.2 58 3.8 E 15 20 8 11 1025.8 1025.9 0.0
18/12:30pm 12.4 9.0 4.1 57 3.8 E 11 17 6 9 1026.1 1026.2 0.0
18/12:00pm 14.0 11.1 4.6 53 4.4 E 9 13 5 7 1026.3 1026.4 0.0
18/11:30am 13.1 10.4 5.5 60 3.6 ESE 9 15 5 8 1026.4 1026.5 0.0
18/11:00am 12.3 9.6 5.7 64 3.1 SSE 9 15 5 8 1026.5 1026.6 0.0
18/10:30am 12.7 9.6 5.4 61 3.4 S 11 17 6 9 1026.5 1026.6 0.0
18/10:00am 12.1 8.9 5.3 63 3.2 S 11 15 6 8 1026.4 1026.5 0.0
18/09:30am 11.4 8.4 5.9 69 2.6 SSE 11 17 6 9 1026.4 1026.5 0.0
18/09:00am 10.9 7.9 6.1 72 2.3 SSE 11 17 6 9 1026.3 1026.4 0.0
18/08:30am 11.1 8.3 6.8 75 2.1 S 11 17 6 9 1026.3 1026.4 0.0
18/08:00am 10.8 8.2 6.2 73 2.2 SSW 9 15 5 8 1026.2 1026.3 0.0
18/07:30am 10.3 7.4 4.7 68 2.6 SW 9 19 5 10 1026.0 1026.1 0.0
18/07:00am 10.0 7.1 4.6 69 2.4 SSW 9 19 5 10 1025.7 1025.8 0.0
18/06:30am 9.5 6.7 5.1 74 2.0 SSW 9 17 5 9 1025.4 1025.5 0.0
18/06:00am 9.2 6.0 5.0 75 1.9 SSW 11 15 6 8 1025.2 1025.3 0.0
18/05:30am 9.2 5.2 5.0 75 1.9 SSW 15 22 8 12 1024.9 1024.9 0.0
18/05:00am 9.3 5.1 3.7 68 2.5 SSW 15 24 8 13 1024.8 1024.8 0.0
18/04:30am 9.2 4.5 3.2 66 2.6 SSW 17 24 9 13 1024.7 1024.7 0.0
18/04:00am 9.2 4.9 3.2 66 2.6 SSW 15 26 8 14 1024.8 1024.8 0.0
18/03:30am 9.1 5.1 4.9 75 1.9 SSW 15 26 8 14 1024.9 1024.9 0.0
18/03:00am 9.1 4.6 6.0 81 1.4 SW 19 28 10 15 1024.9 1024.9 0.0
18/02:30am 9.3 5.3 6.6 83 1.3 SW 17 28 9 15 1025.1 1025.1 0.0
18/02:00am 9.2 7.3 6.5 83 1.3 SW 6 19 3 10 1025.3 1025.4 0.0
18/01:30am 9.1 6.2 6.7 85 1.1 SW 11 24 6 13 1025.4 1025.5 0.0
18/01:00am 8.8 5.6 6.9 88 0.9 SW 13 30 7 16 1025.6 1025.7 0.0
18/12:30am 9.0 4.3 7.6 91 0.7 SSW 22 32 12 17 1025.6 1025.7 0.0
18/12:00am 9.5 4.1 6.4 81 1.4 SW 24 39 13 21 1025.5 1025.6 0.0
 
Date/Time
EDT
Temp
°C
App
Temp
°C
Dew
Point
°C
Rel
Hum
%
Delta-T
°C
Wind Press
QNH
hPa
Press
MSL
hPa
Rain since
9am
mm
Dir  Spd
km/h
Gust
km/h
Spd
kts
Gust
kts
17/11:30pm 9.4 4.9 5.9 79 1.6 SW 19 33 10 18 1025.6 1025.7 0.0
17/11:00pm 9.3 2.8 6.6 83 1.3 SW 30 44 16 24 1025.7 1025.8 0.0
17/10:30pm 9.4 2.6 7.0 85 1.1 SW 32 54 17 29 1025.5 1025.6 0.0
17/10:00pm - - - - - SW 37 50 20 27 1025.6 1025.7 0.0
17/09:30pm - - - - - SW 33 48 18 26 1025.5 1025.6 0.0
17/09:00pm - - - - - SW 32 50 17 27 1025.5 1025.6 0.0
17/08:41pm - - - - - SW 32 56 17 30 1025.3 1025.4 0.0
17/08:30pm - - - - - SW 30 48 16 26 1025.2 1025.3 0.0
17/08:23pm - - - - - SW 28 46 15 25 1025.1 1025.1 0.0
17/08:00pm - - - - - SW 28 43 15 23 1025.2 1025.3 0.0
17/07:30pm - - - - - SW 28 48 15 26 1024.9 1024.9 0.0
17/07:10pm - - - - - SW 32 52 17 28 1024.7 1024.7 0.0
17/07:00pm - - - - - SW 33 50 18 27 1024.5 1024.5 0.0
17/06:30pm - - - - - SW 35 52 19 28 1024.2 1024.2 0.0
17/06:08pm - - - - - SW 30 48 16 26 1024.2 1024.2 0.0
17/06:00pm - - - - - SW 30 44 16 24 1024.2 1024.2 0.0
17/05:30pm - - - - - SW 35 52 19 28 1023.9 1023.9 0.0
17/05:00pm - - - - - SW 32 54 17 29 1023.7 1023.7 0.0
17/04:30pm - - - - - SW 32 52 17 28 1023.5 1023.5 0.0
17/04:02pm - - - - - SW 35 54 19 29 1023.4 1023.4 0.0
17/04:00pm - - - - - SW 37 54 20 29 1023.4 1023.4 0.0
17/03:30pm - - - - - SW 37 57 20 31 1023.4 1023.4 0.0
17/03:02pm - - - - - SW 35 56 19 30 1023.5 1023.5 0.0
17/03:00pm - - - - - SW 37 56 20 30 1023.5 1023.5 0.0
17/02:56pm - - - - - SW 35 54 19 29 1023.4 1023.4 0.0
17/02:30pm - - - - - SW 32 50 17 27 1023.4 1023.4 0.0
17/02:09pm - - - - - SSW 28 48 15 26 1023.4 1023.4 0.0
17/02:00pm - - - - - SSW 24 37 13 20 1023.4 1023.4 0.0
17/01:30pm - - - - - SSW 26 48 14 26 1023.2 1023.2 0.0
17/01:00pm - - - - - SW 28 43 15 23 1023.2 1023.2 0.0
17/12:30pm - - - - - SW 11 30 6 16 1023.0 1023.1 0.0
17/12:00pm - - - - - WNW 11 30 6 16 1023.0 1023.1 0.0

Other Formats:

Comma delimited format used in spreadsheet applications
http://www.bom.gov.au/fwo/IDT60801/IDT60801.95986.axf

JavaScript Object Notation format (JSON) in row-major order
http://www.bom.gov.au/fwo/IDT60801/IDT60801.95986.json